createdAt,value
2018-09-14T00:01:05.209Z,0
2018-09-14T00:02:14.627Z,0
2018-09-14T00:03:24.292Z,0
2018-09-14T00:04:33.962Z,0
2018-09-14T00:05:43.639Z,0
2018-09-14T00:06:53.063Z,0
2018-09-14T00:08:02.746Z,0
2018-09-14T00:09:12.441Z,0
2018-09-14T00:10:21.933Z,0
2018-09-14T00:11:31.141Z,0
2018-09-14T00:12:40.836Z,0
2018-09-14T00:13:50.259Z,0
2018-09-14T00:14:59.982Z,0
2018-09-14T00:16:09.475Z,0
2018-09-14T00:17:19.157Z,0
2018-09-14T00:18:29.103Z,0
2018-09-14T00:19:38.796Z,0
2018-09-14T00:20:47.993Z,0
2018-09-14T00:21:57.154Z,0
2018-09-14T00:23:06.339Z,0
2018-09-14T00:24:15.769Z,0
2018-09-14T00:25:25.495Z,0
2018-09-14T00:26:34.669Z,0
2018-09-14T00:27:43.892Z,0
2018-09-14T00:28:53.318Z,0
2018-09-14T00:30:02.491Z,0
2018-09-14T00:31:11.924Z,0
2018-09-14T00:32:21.597Z,0
2018-09-14T00:33:30.803Z,0
2018-09-14T00:34:39.976Z,0
2018-09-14T00:35:49.401Z,0
2018-09-14T00:36:58.823Z,0
2018-09-14T00:38:08.594Z,0
2018-09-14T00:39:18.009Z,0
2018-09-14T00:40:27.427Z,0
2018-09-14T00:41:36.856Z,0
2018-09-14T00:42:46.332Z,0
2018-09-14T00:43:55.773Z,0
2018-09-14T00:45:05.519Z,0
2018-09-14T00:46:15.457Z,0
2018-09-14T00:47:24.363Z,0
2018-09-14T00:48:34.312Z,0
2018-09-14T00:49:43.747Z,0
2018-09-14T00:50:52.921Z,0
2018-09-14T00:52:02.360Z,0
2018-09-14T00:53:11.524Z,0
2018-09-14T00:54:21.205Z,0
2018-09-14T00:55:30.909Z,0
2018-09-14T00:56:40.330Z,0
2018-09-14T00:57:49.761Z,0
2018-09-14T00:58:59.443Z,0
2018-09-14T01:00:08.875Z,0
2018-09-14T01:01:18.544Z,0
2018-09-14T01:02:27.963Z,0
2018-09-14T01:03:37.638Z,0
2018-09-14T01:04:47.103Z,0
2018-09-14T01:05:56.278Z,0
2018-09-14T01:07:05.437Z,0
2018-09-14T01:08:14.886Z,0
2018-09-14T01:09:24.305Z,0
2018-09-14T01:10:33.235Z,0
2018-09-14T01:11:42.660Z,0
2018-09-14T01:12:51.843Z,0
2018-09-14T01:14:00.751Z,0
2018-09-14T01:15:10.188Z,0
2018-09-14T01:16:19.348Z,0
2018-09-14T01:17:28.973Z,0
2018-09-14T01:18:38.150Z,0
2018-09-14T01:19:48.095Z,0
2018-09-14T01:20:57.572Z,0
2018-09-14T01:22:07.102Z,0
2018-09-14T01:23:16.012Z,0
2018-09-14T01:24:25.451Z,0
2018-09-14T01:25:35.126Z,0
2018-09-14T01:26:44.307Z,0
2018-09-14T01:27:53.993Z,0
2018-09-14T01:29:02.894Z,0
2018-09-14T01:30:12.843Z,0
2018-09-14T01:31:21.999Z,0
2018-09-14T01:32:30.898Z,0
2018-09-14T01:33:39.893Z,0
2018-09-14T01:34:49.045Z,0
2018-09-14T01:35:58.227Z,0
2018-09-14T01:37:07.901Z,0
2018-09-14T01:38:16.945Z,0
2018-09-14T01:39:25.851Z,0
2018-09-14T01:40:35.021Z,0
2018-09-14T01:41:44.434Z,0
2018-09-14T01:42:53.878Z,0
2018-09-14T01:44:03.578Z,0
2018-09-14T01:45:12.810Z,0
2018-09-14T01:46:21.781Z,0
2018-09-14T01:47:31.722Z,0
2018-09-14T01:48:41.211Z,0
2018-09-14T01:49:51.166Z,0
2018-09-14T01:51:00.898Z,0
2018-09-14T01:52:10.075Z,0
2018-09-14T01:53:19.016Z,0
2018-09-14T01:54:28.673Z,0
2018-09-14T01:55:37.843Z,0
2018-09-14T01:56:47.035Z,0
2018-09-14T01:57:56.192Z,0
2018-09-14T01:59:05.358Z,0
2018-09-14T02:00:15.304Z,0
2018-09-14T02:01:24.641Z,0
2018-09-14T02:02:34.311Z,0
2018-09-14T02:03:43.228Z,0
2018-09-14T02:04:52.676Z,0
2018-09-14T02:06:01.879Z,0
2018-09-14T02:07:11.299Z,0
2018-09-14T02:08:20.724Z,0
2018-09-14T02:09:29.897Z,0
2018-09-14T02:10:39.327Z,0
2018-09-14T02:11:48.781Z,0
2018-09-14T02:12:58.467Z,0
2018-09-14T02:14:07.652Z,0
2018-09-14T02:15:16.575Z,0
2018-09-14T02:16:25.784Z,0
2018-09-14T02:17:34.754Z,0
2018-09-14T02:18:44.170Z,0
2018-09-14T02:19:53.591Z,0
2018-09-14T02:21:03.030Z,0
2018-09-14T02:22:12.182Z,0
2018-09-14T02:23:21.373Z,0
2018-09-14T02:24:31.058Z,0
2018-09-14T02:25:40.698Z,0
2018-09-14T02:26:50.015Z,0
2018-09-14T02:27:59.690Z,0
2018-09-14T02:29:08.854Z,0
2018-09-14T02:30:18.978Z,0
2018-09-14T02:31:28.430Z,0
2018-09-14T02:32:38.399Z,0
2018-09-14T02:33:47.573Z,0
2018-09-14T02:34:57.525Z,0
2018-09-14T02:36:07.221Z,0
2018-09-14T02:37:16.649Z,0
2018-09-14T02:38:26.344Z,0
2018-09-14T02:39:35.771Z,0
2018-09-14T02:40:45.462Z,0
2018-09-14T02:41:54.889Z,0
2018-09-14T02:43:04.075Z,0
2018-09-14T02:44:13.756Z,0
2018-09-14T02:45:23.184Z,0
2018-09-14T02:46:32.891Z,0
2018-09-14T02:47:42.314Z,0
2018-09-14T02:48:51.486Z,0
2018-09-14T02:50:00.909Z,0
2018-09-14T02:51:10.332Z,0
2018-09-14T02:52:20.030Z,0
2018-09-14T02:53:29.455Z,0
2018-09-14T02:54:38.618Z,0
2018-09-14T02:55:48.047Z,0
2018-09-14T02:56:56.960Z,0
2018-09-14T02:58:06.458Z,0
2018-09-14T03:01:40.983Z,0
2018-09-14T03:02:50.655Z,0
2018-09-14T03:04:00.600Z,0
2018-09-14T03:05:10.288Z,0
2018-09-14T03:06:19.715Z,0
2018-09-14T03:07:29.391Z,0
2018-09-14T03:08:38.574Z,0
2018-09-14T03:09:48.260Z,0
2018-09-14T03:10:57.879Z,0
2018-09-14T03:12:07.548Z,0
2018-09-14T03:13:16.732Z,0
2018-09-14T03:14:25.912Z,0
2018-09-14T03:15:35.339Z,0
2018-09-14T03:16:45.283Z,0
2018-09-14T03:17:54.466Z,0
2018-09-14T03:19:04.179Z,0
2018-09-14T03:20:13.362Z,0
2018-09-14T03:21:22.789Z,0
2018-09-14T03:22:32.744Z,0
2018-09-14T03:23:42.175Z,0
2018-09-14T03:24:51.863Z,0
2018-09-14T03:26:01.028Z,0
2018-09-14T03:27:10.236Z,0
2018-09-14T03:28:19.669Z,0
2018-09-14T03:29:29.351Z,0
2018-09-14T03:30:38.518Z,0
2018-09-14T03:31:48.364Z,0
2018-09-14T03:32:57.830Z,0
2018-09-14T03:34:07.514Z,0
2018-09-14T03:35:16.944Z,0
2018-09-14T03:36:26.359Z,0
2018-09-14T03:37:35.322Z,0
2018-09-14T03:38:44.757Z,0
2018-09-14T03:39:54.222Z,0
2018-09-14T03:41:03.123Z,0
2018-09-14T03:42:12.791Z,0
2018-09-14T03:43:21.953Z,0
2018-09-14T03:44:31.385Z,0
2018-09-14T03:45:41.320Z,0
2018-09-14T03:46:51.265Z,0
2018-09-14T03:48:00.441Z,0
2018-09-14T03:49:09.876Z,0
2018-09-14T03:50:19.335Z,0
2018-09-14T03:51:29.297Z,0
2018-09-14T03:52:38.737Z,0
2018-09-14T03:53:48.157Z,0
2018-09-14T03:54:57.592Z,0
2018-09-14T03:56:07.563Z,0
2018-09-14T03:57:17.118Z,0
2018-09-14T03:58:26.285Z,0
2018-09-14T03:59:36.232Z,0
2018-09-14T04:00:45.452Z,0
2018-09-14T04:01:55.152Z,0
2018-09-14T04:03:04.843Z,0
2018-09-14T04:04:14.009Z,0
2018-09-14T04:05:23.209Z,0
2018-09-14T04:06:32.388Z,0
2018-09-14T04:07:41.902Z,0
2018-09-14T04:08:51.982Z,0
2018-09-14T04:10:01.424Z,0
2018-09-14T04:11:10.582Z,0
2018-09-14T04:12:19.759Z,0
2018-09-14T04:13:29.477Z,0
2018-09-14T04:14:38.912Z,0
2018-09-14T04:15:48.342Z,0
2018-09-14T04:16:57.775Z,0
2018-09-14T04:18:07.516Z,0
2018-09-14T04:19:17.198Z,0
2018-09-14T04:20:26.905Z,0
2018-09-14T04:21:36.352Z,0
2018-09-14T04:22:45.793Z,0
2018-09-14T04:23:54.745Z,0
2018-09-14T04:25:04.426Z,0
2018-09-14T04:26:13.888Z,0
2018-09-14T04:27:23.369Z,0
2018-09-14T04:28:33.331Z,0
2018-09-14T04:29:42.504Z,0
2018-09-14T04:30:52.134Z,0
2018-09-14T04:32:01.563Z,0
2018-09-14T04:33:11.705Z,0
2018-09-14T04:34:21.130Z,0
2018-09-14T04:35:30.319Z,0
2018-09-14T04:36:40.274Z,0
2018-09-14T04:37:49.948Z,0
2018-09-14T04:38:59.397Z,0
2018-09-14T04:40:08.329Z,0
2018-09-14T04:41:17.803Z,0
2018-09-14T04:42:27.758Z,0
2018-09-14T04:43:37.202Z,0
2018-09-14T04:44:46.626Z,0
2018-09-14T04:45:56.139Z,0
2018-09-14T04:47:05.579Z,0
2018-09-14T04:48:15.110Z,0
2018-09-14T04:49:24.915Z,0
2018-09-14T04:50:34.349Z,0
2018-09-14T04:51:43.844Z,0
2018-09-14T04:52:53.274Z,0
2018-09-14T04:54:02.723Z,0
2018-09-14T04:55:12.223Z,0
2018-09-14T04:56:21.949Z,0
2018-09-14T04:57:31.776Z,0
2018-09-14T04:58:41.977Z,0
2018-09-14T04:59:51.682Z,0
2018-09-14T05:01:01.382Z,0
2018-09-14T05:02:11.103Z,0
2018-09-14T05:03:21.298Z,0
2018-09-14T05:04:31.128Z,0
2018-09-14T05:05:40.313Z,0
2018-09-14T05:06:50.022Z,0
2018-09-14T05:07:59.194Z,0
2018-09-14T05:09:08.104Z,0
2018-09-14T05:10:18.050Z,0
2018-09-14T05:11:27.466Z,0
2018-09-14T05:12:36.388Z,0
2018-09-14T05:13:45.811Z,0
2018-09-14T05:14:54.463Z,0
2018-09-14T05:16:03.907Z,0
2018-09-14T05:17:13.087Z,0
2018-09-14T05:18:22.776Z,0
2018-09-14T05:19:32.481Z,0
2018-09-14T05:20:41.389Z,0
2018-09-14T05:21:50.550Z,0
2018-09-14T05:22:59.963Z,0
2018-09-14T05:24:09.224Z,0
2018-09-14T05:25:18.874Z,0
2018-09-14T05:26:28.305Z,0
2018-09-14T05:27:37.545Z,0
2018-09-14T05:28:47.247Z,0
2018-09-14T05:29:56.426Z,0
2018-09-14T05:31:06.139Z,4
2018-09-14T05:32:15.421Z,4
2018-09-14T05:33:25.143Z,4
2018-09-14T05:34:34.315Z,4
2018-09-14T05:35:43.766Z,4
2018-09-14T05:36:53.927Z,0
2018-09-14T05:38:03.635Z,0
2018-09-14T05:39:12.824Z,0
2018-09-14T05:40:22.252Z,0
2018-09-14T05:41:31.449Z,0
2018-09-14T05:42:41.421Z,4
2018-09-14T05:43:51.139Z,4
2018-09-14T05:45:00.077Z,4
2018-09-14T05:46:10.039Z,4
2018-09-14T05:47:19.514Z,4
2018-09-14T05:48:29.241Z,4
2018-09-14T05:49:38.942Z,0
2018-09-14T05:50:48.375Z,0
2018-09-14T05:51:57.534Z,4
2018-09-14T05:53:06.502Z,4
2018-09-14T05:54:16.218Z,4
2018-09-14T05:55:25.956Z,4
2018-09-14T05:56:36.091Z,4
2018-09-14T05:57:45.535Z,4
2018-09-14T05:58:55.480Z,4
2018-09-14T06:00:04.406Z,4
2018-09-14T06:01:13.580Z,4
2018-09-14T06:02:23.015Z,4
2018-09-14T06:03:32.432Z,4
2018-09-14T06:04:41.861Z,4
2018-09-14T06:05:51.550Z,4
2018-09-14T06:07:00.999Z,4
2018-09-14T06:08:10.177Z,4
2018-09-14T06:09:19.094Z,4
2018-09-14T06:10:28.799Z,4
2018-09-14T06:11:38.501Z,4
2018-09-14T06:12:47.422Z,4
2018-09-14T06:13:57.590Z,4
2018-09-14T06:15:07.543Z,4
2018-09-14T06:16:16.973Z,4
2018-09-14T06:17:26.129Z,4
2018-09-14T06:18:35.557Z,4
2018-09-14T06:19:44.986Z,4
2018-09-14T06:20:54.154Z,8
2018-09-14T06:22:03.356Z,8
2018-09-14T06:23:13.331Z,4
2018-09-14T06:24:22.778Z,4
2018-09-14T06:25:32.764Z,4
2018-09-14T06:26:41.680Z,8
2018-09-14T06:27:51.368Z,8
2018-09-14T06:29:01.056Z,8
2018-09-14T06:30:11.018Z,8
2018-09-14T06:31:20.490Z,8
2018-09-14T06:32:29.659Z,8
2018-09-14T06:33:39.370Z,4
2018-09-14T06:34:48.326Z,8
2018-09-14T06:35:57.236Z,8
2018-09-14T06:37:06.389Z,8
2018-09-14T06:38:15.471Z,8
2018-09-14T06:39:25.269Z,8
2018-09-14T06:40:34.695Z,8
2018-09-14T06:41:43.867Z,8
2018-09-14T06:42:53.133Z,8
2018-09-14T06:44:02.849Z,8
2018-09-14T06:45:12.439Z,8
2018-09-14T06:46:22.205Z,8
2018-09-14T06:47:31.378Z,8
2018-09-14T06:48:40.830Z,8
2018-09-14T06:49:49.755Z,8
2018-09-14T06:50:58.937Z,8
2018-09-14T06:52:09.284Z,8
2018-09-14T06:53:18.581Z,4
2018-09-14T06:54:27.820Z,8
2018-09-14T06:55:37.782Z,4
2018-09-14T06:56:47.800Z,4
2018-09-14T06:57:57.261Z,4
2018-09-14T06:59:06.446Z,4
2018-09-14T07:00:17.090Z,4
2018-09-14T07:01:26.655Z,4
2018-09-14T07:02:36.086Z,4
2018-09-14T07:03:45.513Z,8
2018-09-14T07:04:55.208Z,8
2018-09-14T07:06:04.671Z,8
2018-09-14T07:07:13.335Z,8
2018-09-14T07:08:23.040Z,8
2018-09-14T07:09:31.950Z,8
2018-09-14T07:10:41.379Z,4
2018-09-14T07:11:51.074Z,8
2018-09-14T07:13:00.774Z,8
2018-09-14T07:14:10.541Z,8
2018-09-14T07:15:19.746Z,8
2018-09-14T07:16:28.924Z,4
2018-09-14T07:17:38.617Z,4
2018-09-14T07:18:48.315Z,4
2018-09-14T07:19:57.537Z,4
2018-09-14T07:21:06.523Z,8
2018-09-14T07:22:16.776Z,8
2018-09-14T07:23:26.128Z,8
2018-09-14T07:24:35.551Z,4
2018-09-14T07:25:45.319Z,4
2018-09-14T07:26:55.382Z,8
2018-09-14T07:28:05.156Z,8
2018-09-14T07:29:14.320Z,4
2018-09-14T07:30:24.208Z,4
2018-09-14T07:31:33.579Z,4
2018-09-14T07:32:43.350Z,4
2018-09-14T07:33:52.775Z,4
2018-09-14T07:35:02.453Z,4
2018-09-14T07:36:12.144Z,4
2018-09-14T07:37:21.328Z,4
2018-09-14T07:38:30.558Z,4
2018-09-14T07:39:39.718Z,8
2018-09-14T07:40:48.625Z,8
2018-09-14T07:41:58.565Z,8
2018-09-14T07:43:07.747Z,8
2018-09-14T07:44:17.432Z,8
2018-09-14T07:45:26.642Z,8
2018-09-14T07:46:36.074Z,8
2018-09-14T07:47:45.517Z,4
2018-09-14T07:48:55.214Z,8
2018-09-14T07:50:04.406Z,8
2018-09-14T07:51:14.095Z,8
2018-09-14T07:52:23.320Z,8
2018-09-14T07:53:33.030Z,8
2018-09-14T07:54:42.485Z,8
2018-09-14T07:55:52.292Z,8
2018-09-14T07:57:01.575Z,12
2018-09-14T07:58:10.989Z,8
2018-09-14T07:59:19.917Z,8
2018-09-14T08:00:29.360Z,8
2018-09-14T08:01:38.799Z,8
2018-09-14T08:02:48.227Z,8
2018-09-14T08:03:57.657Z,8
2018-09-14T08:05:07.102Z,12
2018-09-14T08:06:17.213Z,12
2018-09-14T08:07:26.392Z,12
2018-09-14T08:08:35.310Z,8
2018-09-14T08:09:44.837Z,8
2018-09-14T08:10:54.321Z,8
2018-09-14T08:12:04.455Z,12
2018-09-14T08:13:13.967Z,12
2018-09-14T08:14:24.083Z,12
2018-09-14T08:15:33.804Z,12
2018-09-14T08:16:44.226Z,12
2018-09-14T08:17:53.941Z,12
2018-09-14T08:19:03.647Z,12
2018-09-14T08:20:13.704Z,12
2018-09-14T08:21:24.067Z,12
2018-09-14T08:22:33.748Z,12
2018-09-14T08:23:43.251Z,12
2018-09-14T08:24:52.725Z,12
2018-09-14T08:26:02.439Z,12
2018-09-14T08:27:12.115Z,12
2018-09-14T08:28:21.704Z,12
2018-09-14T08:29:30.879Z,8
2018-09-14T08:30:40.068Z,12
2018-09-14T08:31:49.270Z,12
2018-09-14T08:32:58.443Z,12
2018-09-14T08:34:08.486Z,12
2018-09-14T08:35:18.427Z,12
2018-09-14T08:36:27.925Z,12
2018-09-14T08:37:37.358Z,12
2018-09-14T08:38:46.789Z,12
2018-09-14T08:39:55.955Z,12
2018-09-14T08:41:04.873Z,12
2018-09-14T08:42:14.548Z,12
2018-09-14T08:43:24.002Z,16
2018-09-14T08:44:33.463Z,16
2018-09-14T08:45:42.655Z,16
2018-09-14T08:46:51.589Z,16
2018-09-14T08:48:01.435Z,20
2018-09-14T08:49:10.738Z,16
2018-09-14T08:50:20.438Z,16
2018-09-14T08:51:29.393Z,16
2018-09-14T08:52:38.898Z,16
2018-09-14T08:53:49.313Z,12
2018-09-14T08:54:58.544Z,16
2018-09-14T08:56:07.473Z,16
2018-09-14T08:57:16.428Z,12
2018-09-14T08:58:25.418Z,16
2018-09-14T08:59:34.617Z,16
2018-09-14T09:00:43.451Z,16
2018-09-14T09:01:53.284Z,16
2018-09-14T09:03:02.489Z,20
2018-09-14T09:04:12.000Z,16
2018-09-14T09:05:20.938Z,20
2018-09-14T09:06:30.357Z,16
2018-09-14T09:07:40.049Z,20
2018-09-14T09:08:49.737Z,16
2018-09-14T09:09:58.905Z,20
2018-09-14T09:11:08.321Z,28
2018-09-14T09:12:17.496Z,28
2018-09-14T09:13:27.540Z,28
2018-09-14T09:14:37.258Z,32
2018-09-14T09:15:46.942Z,28
2018-09-14T09:16:55.868Z,32
2018-09-14T09:18:05.328Z,32
2018-09-14T09:19:15.096Z,28
2018-09-14T09:20:25.201Z,24
2018-09-14T09:21:34.365Z,28
2018-09-14T09:22:44.066Z,28
2018-09-14T09:23:53.226Z,28
2018-09-14T09:25:02.412Z,28
2018-09-14T09:26:11.378Z,32
2018-09-14T09:27:20.832Z,28
2018-09-14T09:28:30.268Z,32
2018-09-14T09:29:39.702Z,32
2018-09-14T09:30:48.968Z,32
2018-09-14T09:31:58.152Z,32
2018-09-14T09:33:07.916Z,28
2018-09-14T09:34:17.159Z,28
2018-09-14T09:35:26.844Z,32
2018-09-14T09:36:36.016Z,32
2018-09-14T09:37:45.184Z,32
2018-09-14T09:38:54.861Z,28
2018-09-14T09:40:04.298Z,32
2018-09-14T09:41:13.845Z,28
2018-09-14T09:42:23.800Z,28
2018-09-14T09:43:34.311Z,28
2018-09-14T09:44:44.123Z,28
2018-09-14T09:45:53.729Z,28
2018-09-14T09:47:03.194Z,28
2018-09-14T09:48:12.901Z,28
2018-09-14T09:49:21.814Z,28
2018-09-14T09:50:31.772Z,28
2018-09-14T09:51:41.194Z,28
2018-09-14T09:52:50.633Z,28
2018-09-14T09:53:59.797Z,28
2018-09-14T09:55:09.532Z,32
2018-09-14T09:56:18.968Z,32
2018-09-14T09:57:28.145Z,28
2018-09-14T09:58:37.852Z,28
2018-09-14T09:59:47.079Z,32
2018-09-14T10:00:56.281Z,28
2018-09-14T10:02:05.705Z,28
2018-09-14T10:03:14.885Z,28
2018-09-14T10:04:24.325Z,32
2018-09-14T10:05:33.501Z,28
2018-09-14T10:06:42.940Z,28
2018-09-14T10:07:52.631Z,24
2018-09-14T10:09:01.862Z,28
2018-09-14T10:10:11.553Z,28
2018-09-14T10:11:20.736Z,32
2018-09-14T10:12:30.175Z,28
2018-09-14T10:13:39.112Z,28
2018-09-14T10:14:48.734Z,24
2018-09-14T10:15:58.422Z,28
2018-09-14T10:17:07.871Z,28
2018-09-14T10:18:17.049Z,20
2018-09-14T10:19:26.264Z,28
2018-09-14T10:20:35.783Z,28
2018-09-14T10:21:45.661Z,28
2018-09-14T10:22:55.101Z,24
2018-09-14T10:24:04.783Z,28
2018-09-14T10:25:14.229Z,24
2018-09-14T10:26:24.242Z,12
2018-09-14T10:27:33.188Z,24
2018-09-14T10:28:42.677Z,24
2018-09-14T10:29:51.832Z,28
2018-09-14T10:31:01.250Z,12
2018-09-14T10:32:10.744Z,12
2018-09-14T10:33:20.416Z,12
2018-09-14T10:34:29.853Z,24
2018-09-14T10:35:39.806Z,24
2018-09-14T10:36:49.499Z,28
2018-09-14T10:37:59.212Z,28
2018-09-14T10:39:08.418Z,24
2018-09-14T10:40:17.840Z,28
2018-09-14T10:41:27.295Z,28
2018-09-14T10:42:36.222Z,20
2018-09-14T10:43:45.671Z,28
2018-09-14T10:44:54.634Z,28
2018-09-14T10:46:04.080Z,32
2018-09-14T10:47:12.976Z,28
2018-09-14T10:48:22.157Z,28
2018-09-14T10:49:31.606Z,28
2018-09-14T10:50:40.763Z,28
2018-09-14T10:51:49.920Z,28
2018-09-14T10:52:59.345Z,28
2018-09-14T10:54:08.904Z,28
2018-09-14T10:55:17.889Z,28
2018-09-14T10:56:28.012Z,20
2018-09-14T10:57:37.473Z,16
2018-09-14T10:58:47.420Z,16
2018-09-14T10:59:57.132Z,12
2018-09-14T11:01:06.809Z,12
2018-09-14T11:02:16.221Z,12
2018-09-14T11:03:25.397Z,12
2018-09-14T11:04:34.903Z,12
2018-09-14T11:05:44.222Z,12
2018-09-14T11:06:53.970Z,16
2018-09-14T11:08:03.773Z,16
2018-09-14T11:09:13.713Z,16
2018-09-14T11:10:23.132Z,16
2018-09-14T11:11:32.577Z,20
2018-09-14T11:12:42.641Z,28
2018-09-14T11:13:52.301Z,16
2018-09-14T11:15:01.755Z,12
2018-09-14T11:16:11.185Z,16
2018-09-14T11:17:20.906Z,12
2018-09-14T11:18:30.622Z,12
2018-09-14T11:19:40.140Z,12
2018-09-14T11:20:49.061Z,16
2018-09-14T11:21:58.753Z,16
2018-09-14T11:23:07.910Z,16
2018-09-14T11:24:17.346Z,20
2018-09-14T11:25:27.015Z,16
2018-09-14T11:26:36.532Z,12
2018-09-14T11:27:46.074Z,12
2018-09-14T11:28:55.304Z,12
2018-09-14T11:30:04.476Z,12
2018-09-14T11:31:14.418Z,12
2018-09-14T11:32:24.413Z,12
2018-09-14T11:33:33.975Z,12
2018-09-14T11:34:43.701Z,12
2018-09-14T11:35:52.604Z,12
2018-09-14T11:37:01.758Z,12
2018-09-14T11:38:11.448Z,12
2018-09-14T11:39:20.872Z,12
2018-09-14T11:40:30.590Z,12
2018-09-14T11:41:40.280Z,12
2018-09-14T11:42:49.441Z,12
2018-09-14T11:43:58.613Z,16
2018-09-14T11:45:08.849Z,20
2018-09-14T11:46:18.972Z,28
2018-09-14T11:47:29.354Z,28
2018-09-14T11:48:38.780Z,32
2018-09-14T11:49:48.225Z,28
2018-09-14T11:50:57.423Z,28
2018-09-14T11:52:06.609Z,28
2018-09-14T11:53:15.532Z,28
2018-09-14T11:54:25.473Z,28
2018-09-14T11:55:35.052Z,28
2018-09-14T11:56:44.841Z,24
2018-09-14T11:57:54.295Z,16
2018-09-14T11:59:03.481Z,16
2018-09-14T12:00:13.207Z,28
2018-09-14T12:01:23.491Z,32
2018-09-14T12:02:33.436Z,32
2018-09-14T12:03:42.684Z,28
2018-09-14T12:04:52.162Z,32
2018-09-14T12:06:01.629Z,24
2018-09-14T12:07:11.361Z,20
2018-09-14T12:08:20.906Z,12
2018-09-14T12:09:30.379Z,12
2018-09-14T12:10:39.585Z,16
2018-09-14T12:11:48.513Z,16
2018-09-14T12:12:57.751Z,20
2018-09-14T12:14:06.998Z,28
2018-09-14T12:15:16.718Z,16
2018-09-14T12:16:26.508Z,16
2018-09-14T12:17:35.993Z,16
2018-09-14T12:18:45.522Z,32
2018-09-14T12:19:54.735Z,28
2018-09-14T12:21:03.680Z,32
2018-09-14T12:22:13.575Z,32
2018-09-14T12:23:23.411Z,36
2018-09-14T12:24:32.922Z,40
2018-09-14T12:25:42.417Z,40
2018-09-14T12:26:51.621Z,36
2018-09-14T12:28:01.621Z,36
2018-09-14T12:29:11.077Z,36
2018-09-14T12:30:20.291Z,24
2018-09-14T12:31:29.746Z,36
2018-09-14T12:32:39.028Z,40
2018-09-14T12:33:48.716Z,16
2018-09-14T12:34:57.906Z,16
2018-09-14T12:36:07.384Z,24
2018-09-14T12:37:17.101Z,36
2018-09-14T12:38:26.575Z,36
2018-09-14T12:39:35.843Z,36
2018-09-14T12:40:45.569Z,32
2018-09-14T12:41:55.500Z,36
2018-09-14T12:43:05.245Z,36
2018-09-14T12:44:14.445Z,36
2018-09-14T12:45:23.934Z,40
2018-09-14T12:46:33.437Z,40
2018-09-14T12:47:42.623Z,36
2018-09-14T12:48:52.302Z,12
2018-09-14T12:50:01.734Z,12
2018-09-14T12:51:11.176Z,28
2018-09-14T12:52:20.705Z,40
2018-09-14T12:53:29.550Z,40
2018-09-14T12:54:38.754Z,24
2018-09-14T12:55:48.256Z,40
2018-09-14T12:56:58.225Z,12
2018-09-14T12:58:07.759Z,12
2018-09-14T12:59:16.994Z,48
2018-09-14T13:00:26.766Z,52
2018-09-14T13:01:35.896Z,52
2018-09-14T13:02:45.330Z,28
2018-09-14T13:03:54.813Z,12
2018-09-14T13:05:04.300Z,52
2018-09-14T13:06:13.650Z,48
2018-09-14T13:07:23.212Z,56
2018-09-14T13:08:32.943Z,56
2018-09-14T13:09:41.941Z,56
2018-09-14T13:10:51.185Z,48
2018-09-14T13:12:00.816Z,56
2018-09-14T13:13:10.571Z,56
2018-09-14T13:14:20.356Z,56
2018-09-14T13:15:29.850Z,60
2018-09-14T13:16:39.646Z,16
2018-09-14T13:17:48.930Z,16
2018-09-14T13:18:59.422Z,60
2018-09-14T13:20:09.505Z,60
2018-09-14T13:21:18.957Z,60
2018-09-14T13:22:28.520Z,60
2018-09-14T13:23:37.986Z,60
2018-09-14T13:24:46.953Z,64
2018-09-14T13:25:56.407Z,48
2018-09-14T13:27:05.866Z,48
2018-09-14T13:28:15.621Z,64
2018-09-14T13:29:25.298Z,16
2018-09-14T13:30:35.178Z,20
2018-09-14T13:31:44.804Z,12
2018-09-14T13:32:53.748Z,48
2018-09-14T13:34:03.451Z,20
2018-09-14T13:35:13.145Z,24
2018-09-14T13:36:22.347Z,64
2018-09-14T13:37:31.810Z,68
2018-09-14T13:38:40.981Z,68
2018-09-14T13:39:50.659Z,40
2018-09-14T13:41:00.338Z,16
2018-09-14T13:42:09.849Z,12
2018-09-14T13:43:19.544Z,12
2018-09-14T13:44:29.283Z,12
2018-09-14T13:45:39.209Z,12
2018-09-14T13:46:48.656Z,12
2018-09-14T13:47:58.339Z,12
2018-09-14T13:49:07.560Z,12
2018-09-14T13:50:16.793Z,60
2018-09-14T13:51:26.484Z,28
2018-09-14T13:52:35.648Z,12
2018-09-14T13:53:45.327Z,12
2018-09-14T13:54:54.487Z,12
2018-09-14T13:56:03.651Z,8
2018-09-14T13:57:13.096Z,12
2018-09-14T13:58:22.012Z,16
2018-09-14T13:59:31.238Z,44
2018-09-14T14:00:40.723Z,52
2018-09-14T14:01:50.495Z,72
2018-09-14T14:02:59.944Z,72
2018-09-14T14:04:09.127Z,72
2018-09-14T14:05:18.169Z,68
2018-09-14T14:06:27.105Z,68
2018-09-14T14:07:36.793Z,68
2018-09-14T14:08:46.302Z,68
2018-09-14T14:09:55.991Z,40
2018-09-14T14:11:05.468Z,68
2018-09-14T14:12:14.128Z,48
2018-09-14T14:13:23.822Z,68
2018-09-14T14:14:33.006Z,60
2018-09-14T14:15:42.172Z,56
2018-09-14T14:16:52.265Z,32
2018-09-14T14:18:02.256Z,32
2018-09-14T14:19:11.423Z,28
2018-09-14T14:20:20.879Z,32
2018-09-14T14:21:30.834Z,20
2018-09-14T14:22:39.851Z,12
2018-09-14T14:23:49.015Z,12
2018-09-14T14:24:58.502Z,12
2018-09-14T14:26:08.194Z,12
2018-09-14T14:27:17.633Z,12
2018-09-14T14:28:27.452Z,12
2018-09-14T14:29:36.920Z,12
2018-09-14T14:30:46.100Z,16
2018-09-14T14:31:56.043Z,16
2018-09-14T14:33:05.486Z,16
2018-09-14T14:34:14.668Z,16
2018-09-14T14:35:24.120Z,16
2018-09-14T14:36:33.309Z,12
2018-09-14T14:37:43.024Z,16
2018-09-14T14:38:52.457Z,12
2018-09-14T14:40:01.368Z,12
2018-09-14T14:41:11.423Z,12
2018-09-14T14:42:20.619Z,8
2018-09-14T14:43:30.044Z,12
2018-09-14T14:44:39.744Z,8
2018-09-14T14:45:49.440Z,8
2018-09-14T14:46:58.347Z,4
2018-09-14T14:48:07.788Z,8
2018-09-14T14:49:17.296Z,8
2018-09-14T14:50:25.952Z,8
2018-09-14T14:51:34.849Z,8
2018-09-14T14:52:44.536Z,12
2018-09-14T14:53:54.213Z,8
2018-09-14T14:55:03.907Z,12
2018-09-14T14:56:13.742Z,12
2018-09-14T14:57:22.938Z,12
2018-09-14T14:58:32.636Z,12
2018-09-14T14:59:41.828Z,12
2018-09-14T15:00:51.315Z,12
2018-09-14T15:02:00.778Z,12
2018-09-14T15:03:10.223Z,8
2018-09-14T15:04:19.147Z,12
2018-09-14T15:05:28.838Z,12
2018-09-14T15:06:38.300Z,12
2018-09-14T15:07:48.077Z,8
2018-09-14T15:08:57.261Z,12
2018-09-14T15:10:06.434Z,8
2018-09-14T15:11:16.450Z,8
2018-09-14T15:12:26.263Z,12
2018-09-14T15:13:35.876Z,12
2018-09-14T15:14:45.404Z,12
2018-09-14T15:15:54.824Z,12
2018-09-14T15:17:04.304Z,8
2018-09-14T15:18:13.220Z,12
2018-09-14T15:19:23.353Z,12
2018-09-14T15:20:32.626Z,12
2018-09-14T15:21:42.443Z,8
2018-09-14T15:22:52.175Z,12
2018-09-14T15:24:01.846Z,8
2018-09-14T15:25:11.617Z,8
2018-09-14T15:26:20.769Z,8
2018-09-14T15:27:29.975Z,8
2018-09-14T15:28:39.910Z,8
2018-09-14T15:29:49.120Z,8
2018-09-14T15:30:58.311Z,8
2018-09-14T15:32:07.764Z,4
2018-09-14T15:33:16.984Z,8
2018-09-14T15:34:26.459Z,8
2018-09-14T15:35:35.917Z,8
2018-09-14T15:36:45.131Z,4
2018-09-14T15:37:54.592Z,8
2018-09-14T15:39:04.070Z,8
2018-09-14T15:40:13.563Z,8
2018-09-14T15:41:23.322Z,4
2018-09-14T15:42:32.507Z,4
2018-09-14T15:43:41.554Z,4
2018-09-14T15:44:51.610Z,4
2018-09-14T15:46:01.040Z,4
2018-09-14T15:47:10.545Z,8
2018-09-14T15:48:19.999Z,4
2018-09-14T15:49:29.726Z,4
2018-09-14T15:50:38.631Z,4
2018-09-14T15:51:48.107Z,4
2018-09-14T15:52:57.823Z,4
2018-09-14T15:54:07.293Z,4
2018-09-14T15:55:16.280Z,8
2018-09-14T15:56:25.480Z,8
2018-09-14T15:57:35.061Z,4
2018-09-14T15:58:44.955Z,4
2018-09-14T15:59:54.175Z,4
2018-09-14T16:01:03.370Z,4
2018-09-14T16:02:13.102Z,4
2018-09-14T16:03:22.809Z,4
2018-09-14T16:04:32.027Z,4
2018-09-14T16:05:41.444Z,4
2018-09-14T16:06:50.987Z,4
2018-09-14T16:08:00.524Z,4
2018-09-14T16:09:10.264Z,4
2018-09-14T16:10:19.237Z,4
2018-09-14T16:11:28.782Z,8
2018-09-14T16:12:38.012Z,4
2018-09-14T16:13:47.702Z,4
2018-09-14T16:14:56.932Z,4
2018-09-14T16:16:06.129Z,4
2018-09-14T16:17:15.363Z,4
2018-09-14T16:18:24.825Z,4
2018-09-14T16:19:34.300Z,4
2018-09-14T16:20:43.588Z,4
2018-09-14T16:21:52.781Z,4
2018-09-14T16:23:01.801Z,4
2018-09-14T16:24:11.012Z,4
2018-09-14T16:25:20.202Z,4
2018-09-14T16:26:29.468Z,4
2018-09-14T16:27:38.979Z,4
2018-09-14T16:28:48.488Z,4
2018-09-14T16:29:57.748Z,4
2018-09-14T16:31:06.678Z,4
2018-09-14T16:32:16.422Z,4
2018-09-14T16:33:25.678Z,4
2018-09-14T16:34:35.449Z,4
2018-09-14T16:35:44.735Z,4
2018-09-14T16:36:54.499Z,4
2018-09-14T16:38:04.391Z,0
2018-09-14T16:39:13.876Z,4
2018-09-14T16:40:23.641Z,4
2018-09-14T16:41:33.622Z,4
2018-09-14T16:42:43.341Z,4
2018-09-14T16:43:52.556Z,4
2018-09-14T16:45:02.039Z,4
2018-09-14T16:46:11.461Z,0
2018-09-14T16:47:20.660Z,0
2018-09-14T16:48:30.123Z,0
2018-09-14T16:49:39.080Z,0
2018-09-14T16:50:48.831Z,0
2018-09-14T16:51:58.554Z,0
2018-09-14T16:53:08.650Z,0
2018-09-14T16:54:17.612Z,4